Time;durP1;ratioP1;P1;durP2;ratioP2;P2;SDS_P1;SDS_P2;PMS_P1;PMS_P2;Temp;Humidity;BMP_temperature;BMP_pressure;BME280_temperature;BME280_humidity;BME280_pressure;Samples;Min_cycle;Max_cycle;Signal;HPM_P1;HPM_P2
2022/05/20 00:01:46;;;;;;;0.00;0.00;;;14.10;99.90;;;;;;5073832;28;20052;-77
2022/05/20 00:04:13;;;;;;;0.00;0.00;;;14.10;99.90;;;;;;5074206;28;20052;-77
2022/05/20 00:06:39;;;;;;;0.75;0.20;;;14.20;99.90;;;;;;5073793;28;20488;-77
2022/05/20 00:09:05;;;;;;;0.00;0.00;;;14.20;99.90;;;;;;5057257;28;20048;-77
2022/05/20 00:11:31;;;;;;;0.03;0.03;;;14.20;99.90;;;;;;5057307;28;20481;-77
2022/05/20 00:13:57;;;;;;;0.20;0.20;;;14.30;99.90;;;;;;5074012;28;20055;-77
2022/05/20 00:16:23;;;;;;;0.00;0.00;;;14.20;99.90;;;;;;5056960;28;20045;-77
2022/05/20 00:18:49;;;;;;;0.00;0.00;;;14.30;99.90;;;;;;5073449;28;20449;-77
2022/05/20 00:21:15;;;;;;;0.00;0.00;;;14.20;99.90;;;;;;5073788;28;20047;-77
2022/05/20 00:23:41;;;;;;;0.00;0.00;;;14.20;99.90;;;;;;5073742;28;20040;-77
2022/05/20 00:26:07;;;;;;;0.00;0.00;;;14.10;99.90;;;;;;5073808;28;20127;-77
2022/05/20 00:28:34;;;;;;;0.00;0.00;;;14.20;99.90;;;;;;5073501;28;20187;-77
2022/05/20 00:31:10;;;;;;;0.00;0.00;;;14.20;99.90;;;;;;5073291;28;20049;-77
2022/05/20 00:33:37;;;;;;;0.00;0.00;;;14.10;99.90;;;;;;5073554;28;20056;-77
2022/05/20 00:36:04;;;;;;;0.00;0.00;;;14.10;99.90;;;;;;5057107;28;20053;-77
2022/05/20 00:38:30;;;;;;;0.95;0.30;;;14.10;99.90;;;;;;5073921;28;20110;-78
2022/05/20 00:40:57;;;;;;;0.00;0.00;;;14.10;99.90;;;;;;5073726;28;20488;-77
2022/05/20 00:43:26;;;;;;;0.08;0.08;;;14.10;99.90;;;;;;5073352;28;20052;-77
2022/05/20 00:45:55;;;;;;;0.22;0.20;;;14.10;99.90;;;;;;5073392;28;20052;-77
2022/05/20 00:48:21;;;;;;;0.00;0.00;;;14.10;99.90;;;;;;5073509;28;20040;-77
2022/05/20 00:50:53;;;;;;;0.00;0.00;;;14.00;99.90;;;;;;5072198;28;20060;-77
2022/05/20 00:53:20;;;;;;;0.00;0.00;;;14.10;99.90;;;;;;5072924;28;20141;-77
2022/05/20 00:55:46;;;;;;;0.65;0.28;;;14.10;99.90;;;;;;5056323;28;20071;-77
2022/05/20 00:58:20;;;;;;;0.00;0.00;;;14.10;99.90;;;;;;5056665;28;20045;-77
2022/05/20 01:00:52;;;;;;;0.00;0.00;;;14.10;99.90;;;;;;5073091;28;20049;-77
2022/05/20 01:03:22;;;;;;;0.00;0.00;;;14.10;99.90;;;;;;5073192;28;20451;-77
2022/05/20 01:05:49;;;;;;;0.03;0.00;;;14.10;99.90;;;;;;5056063;28;20052;-77
2022/05/20 01:08:20;;;;;;;0.00;0.00;;;14.00;99.90;;;;;;5056584;28;20051;-77
2022/05/20 01:10:46;;;;;;;0.35;0.22;;;14.10;99.90;;;;;;5055943;28;20051;-78
2022/05/20 01:13:14;;;;;;;0.00;0.00;;;14.10;99.90;;;;;;5072676;28;20044;-77
2022/05/20 01:15:40;;;;;;;0.03;0.03;;;14.10;99.90;;;;;;5072937;28;20084;-77
2022/05/20 01:18:08;;;;;;;0.00;0.00;;;14.10;99.90;;;;;;5072906;28;20049;-77
2022/05/20 01:20:38;;;;;;;0.10;0.10;;;14.10;99.90;;;;;;5056100;28;20499;-77
2022/05/20 01:23:10;;;;;;;0.00;0.00;;;14.00;99.90;;;;;;5055915;28;20055;-77
2022/05/20 01:25:39;;;;;;;0.00;0.00;;;14.00;99.90;;;;;;5072484;28;20059;-77
2022/05/20 01:28:05;;;;;;;0.00;0.00;;;13.90;99.90;;;;;;5055788;28;20400;-77
2022/05/20 01:30:32;;;;;;;0.00;0.00;;;13.90;99.90;;;;;;5072490;28;20040;-77
2022/05/20 01:33:03;;;;;;;0.55;0.30;;;13.90;99.90;;;;;;5055967;28;20053;-77
2022/05/20 01:35:40;;;;;;;0.00;0.00;;;13.90;99.90;;;;;;5055995;28;20051;-77
2022/05/20 01:38:08;;;;;;;0.00;0.00;;;13.90;99.90;;;;;;5055895;28;20392;-77
2022/05/20 01:41:00;;;;;;;0.10;0.05;;;13.90;99.90;;;;;;5072588;28;20052;-77
2022/05/20 01:43:51;;;;;;;0.00;0.00;;;13.90;99.90;;;;;;5056045;28;20174;-78
2022/05/20 01:46:38;;;;;;;0.00;0.00;;;13.90;99.90;;;;;;5055837;28;20056;-77
2022/05/20 01:49:19;;;;;;;0.00;0.00;;;13.90;99.90;;;;;;5072534;28;20481;-77
2022/05/20 01:52:23;;;;;;;0.03;0.00;;;13.90;99.90;;;;;;5072906;28;20064;-77
2022/05/20 01:55:00;;;;;;;0.08;0.00;;;13.90;99.90;;;;;;5018010;28;20527;-77
2022/05/20 01:57:33;;;;;;;0.00;0.00;;;13.80;99.90;;;;;;5034951;28;20147;-77
2022/05/20 02:00:21;;;;;;;0.13;0.13;;;13.90;99.90;;;;;;5034284;28;20053;-77
2022/05/20 02:02:57;;;;;;;0.00;0.00;;;13.90;99.90;;;;;;5038213;28;20053;-77
2022/05/20 02:05:43;;;;;;;0.35;0.08;;;13.80;99.90;;;;;;5038638;28;20057;-77
2022/05/20 02:08:14;;;;;;;0.10;0.10;;;13.80;99.90;;;;;;5039344;28;20053;-77
2022/05/20 02:10:57;;;;;;;0.00;0.00;;;13.80;99.90;;;;;;5021872;28;20485;-77
2022/05/20 02:13:26;;;;;;;0.15;0.15;;;13.80;99.90;;;;;;5022167;28;20065;-77
2022/05/20 02:15:57;;;;;;;0.00;0.00;;;13.80;99.90;;;;;;5038414;28;20045;-77
2022/05/20 02:18:49;;;;;;;0.00;0.00;;;13.80;99.90;;;;;;5038533;28;20467;-77
2022/05/20 02:21:19;;;;;;;0.00;0.00;;;13.70;99.90;;;;;;5038651;28;20048;-77
2022/05/20 02:23:53;;;;;;;0.00;0.00;;;13.70;99.90;;;;;;5038401;28;20132;-77
2022/05/20 02:26:25;;;;;;;0.20;0.08;;;13.70;99.90;;;;;;5068542;28;20147;-77
2022/05/20 02:28:57;;;;;;;0.00;0.00;;;13.80;99.90;;;;;;5077233;28;20052;-77
2022/05/20 02:31:30;;;;;;;0.00;0.00;;;13.80;99.90;;;;;;5076042;28;20051;-77
2022/05/20 02:33:56;;;;;;;1.27;0.57;;;13.80;99.90;;;;;;5059316;28;20052;-77
2022/05/20 02:36:33;;;;;;;0.28;0.00;;;13.80;99.90;;;;;;5075756;28;20052;-77
2022/05/20 02:38:59;;;;;;;0.00;0.00;;;13.70;99.90;;;;;;5075958;28;20049;-77
2022/05/20 02:41:25;;;;;;;0.00;0.00;;;13.70;99.90;;;;;;5075851;28;20090;-77
2022/05/20 02:43:51;;;;;;;0.00;0.00;;;13.80;99.90;;;;;;5075889;28;20041;-77
2022/05/20 02:46:17;;;;;;;0.35;0.10;;;13.70;99.90;;;;;;5075576;28;20088;-77
2022/05/20 02:48:43;;;;;;;0.00;0.00;;;13.80;99.90;;;;;;5075547;28;20052;-77
2022/05/20 02:51:09;;;;;;;0.00;0.00;;;13.70;99.90;;;;;;5058476;28;20556;-77
2022/05/20 02:53:35;;;;;;;0.00;0.00;;;13.70;99.90;;;;;;5075507;28;20067;-77
2022/05/20 02:56:03;;;;;;;0.05;0.05;;;13.70;99.90;;;;;;5075454;28;20472;-77
2022/05/20 03:04:09;;;;;;;0.08;0.03;;;13.70;99.90;;;;;;5075323;28;20052;-77
2022/05/20 03:06:56;;;;;;;0.00;0.00;;;13.60;99.90;;;;;;5058513;28;20061;-77
2022/05/20 03:09:24;;;;;;;0.00;0.00;;;13.70;99.90;;;;;;5057674;28;20515;-77
2022/05/20 03:11:51;;;;;;;0.00;0.00;;;13.70;99.90;;;;;;5074797;28;20063;-77
2022/05/20 03:14:20;;;;;;;0.10;0.10;;;13.70;99.90;;;;;;5058560;28;20488;-77
2022/05/20 03:16:46;;;;;;;0.00;0.00;;;13.70;99.90;;;;;;5075238;28;20041;-77
2022/05/20 03:19:12;;;;;;;0.00;0.00;;;13.70;99.90;;;;;;5058064;28;20139;-77
2022/05/20 03:21:39;;;;;;;0.10;0.00;;;13.70;99.90;;;;;;5074549;28;20052;-77
2022/05/20 03:24:06;;;;;;;0.03;0.03;;;13.70;99.90;;;;;;5058209;28;20080;-77
2022/05/20 03:26:33;;;;;;;0.03;0.03;;;13.60;99.90;;;;;;5074864;28;20052;-77
2022/05/20 03:28:59;;;;;;;0.00;0.00;;;13.60;99.90;;;;;;5058638;28;20153;-77
2022/05/20 03:31:29;;;;;;;0.00;0.00;;;13.60;99.90;;;;;;5075269;28;20095;-77
2022/05/20 03:33:55;;;;;;;0.00;0.00;;;13.50;99.90;;;;;;5058044;28;20043;-77
2022/05/20 03:36:21;;;;;;;0.00;0.00;;;13.50;99.90;;;;;;5073997;28;20040;-78
2022/05/20 03:38:47;;;;;;;0.00;0.00;;;13.50;99.90;;;;;;5072655;28;20058;-77
2022/05/20 03:41:13;;;;;;;0.00;0.00;;;13.50;99.90;;;;;;5056450;28;20106;-77
2022/05/20 03:43:39;;;;;;;0.50;0.50;;;13.50;99.90;;;;;;5057891;28;20067;-77
2022/05/20 03:46:05;;;;;;;0.00;0.00;;;13.50;99.90;;;;;;5074573;28;20040;-77
2022/05/20 03:48:31;;;;;;;0.00;0.00;;;13.50;99.90;;;;;;5074209;28;20090;-77
2022/05/20 03:51:06;;;;;;;0.10;0.10;;;13.50;99.90;;;;;;5073845;28;20067;-77
2022/05/20 03:53:31;;;;;;;0.00;0.00;;;13.50;99.90;;;;;;5074278;28;20045;-77
2022/05/20 03:55:58;;;;;;;0.00;0.00;;;13.50;99.90;;;;;;5058259;28;20114;-77
2022/05/20 03:58:23;;;;;;;0.00;0.00;;;13.50;99.90;;;;;;5074292;28;20518;-76
2022/05/20 04:03:33;;;;;;;0.00;0.00;;;13.60;99.90;;;;;;5074286;28;20227;-77
2022/05/20 04:06:00;;;;;;;0.00;0.00;;;13.60;99.90;;;;;;5074036;28;20137;-77
2022/05/20 04:08:27;;;;;;;0.00;0.00;;;13.60;99.90;;;;;;5057562;28;20392;-77
2022/05/20 04:10:53;;;;;;;0.00;0.00;;;13.50;99.90;;;;;;5057324;28;20128;-77
2022/05/20 04:13:21;;;;;;;0.00;0.00;;;13.50;99.90;;;;;;5074013;28;20472;-77
2022/05/20 04:15:47;;;;;;;1.08;0.50;;;13.50;99.90;;;;;;5073902;28;20052;-77
2022/05/20 04:18:13;;;;;;;0.00;0.00;;;13.50;99.90;;;;;;5073701;28;20098;-77
2022/05/20 04:20:38;;;;;;;0.00;0.00;;;13.60;99.90;;;;;;5073716;28;20472;-77
2022/05/20 04:23:04;;;;;;;0.05;0.00;;;13.60;99.90;;;;;;5057105;28;20053;-77
2022/05/20 04:25:29;;;;;;;0.00;0.00;;;13.50;99.90;;;;;;5056265;28;20040;-77
2022/05/20 04:27:55;;;;;;;0.00;0.00;;;13.50;99.90;;;;;;5073390;28;20039;-76
2022/05/20 04:30:21;;;;;;;0.00;0.00;;;13.50;99.90;;;;;;5073571;28;20040;-77
2022/05/20 04:32:47;;;;;;;0.00;0.00;;;13.50;99.90;;;;;;5056686;28;20118;-77
2022/05/20 04:35:12;;;;;;;0.00;0.00;;;13.50;99.90;;;;;;5073453;28;20079;-77
2022/05/20 04:37:38;;;;;;;0.00;0.00;;;13.50;99.90;;;;;;5073257;28;20131;-77
2022/05/20 04:40:04;;;;;;;0.00;0.00;;;13.60;99.90;;;;;;5073453;28;20063;-77
2022/05/20 04:48:01;;;;;;;0.00;0.00;;;13.70;99.90;;;;;;5073292;28;20050;-77
2022/05/20 04:50:26;;;;;;;0.10;0.10;;;13.70;99.90;;;;;;5072055;28;20059;-77
2022/05/20 04:52:52;;;;;;;0.00;0.00;;;13.70;99.90;;;;;;5072216;28;20127;-77
2022/05/20 04:55:18;;;;;;;0.50;0.40;;;13.70;99.90;;;;;;5056812;28;20087;-77
2022/05/20 04:57:46;;;;;;;0.08;0.00;;;13.70;99.90;;;;;;5056354;28;20049;-77
2022/05/20 05:00:28;;;;;;;0.00;0.00;;;13.70;99.90;;;;;;5073016;28;20056;-77
2022/05/20 05:02:55;;;;;;;0.00;0.00;;;13.70;99.90;;;;;;5073640;28;20080;-77
2022/05/20 05:05:27;;;;;;;0.00;0.00;;;13.70;99.90;;;;;;5073043;28;20080;-77
2022/05/20 05:07:55;;;;;;;0.00;0.00;;;13.70;99.90;;;;;;5056454;28;20045;-77
2022/05/20 05:10:25;;;;;;;0.00;0.00;;;13.70;99.90;;;;;;5072664;28;20044;-76
2022/05/20 05:12:50;;;;;;;0.10;0.10;;;13.70;99.90;;;;;;5056007;28;20078;-77
2022/05/20 05:15:17;;;;;;;0.00;0.00;;;13.80;99.90;;;;;;5072795;28;20044;-77
2022/05/20 05:20:29;;;;;;;1.55;0.00;;;13.70;99.90;;;;;;5072977;28;20050;-76
2022/05/20 05:22:56;;;;;;;0.08;0.08;;;13.70;99.90;;;;;;5055807;28;20488;-77
2022/05/20 05:25:25;;;;;;;0.00;0.00;;;13.70;99.90;;;;;;5056102;28;20562;-76
2022/05/20 05:27:51;;;;;;;0.03;0.03;;;13.70;99.90;;;;;;5072939;28;20139;-76
2022/05/20 05:30:17;;;;;;;0.00;0.00;;;13.80;99.90;;;;;;5072545;28;20452;-76
2022/05/20 05:32:43;;;;;;;0.10;0.10;;;13.80;99.90;;;;;;5072741;28;20063;-76
2022/05/20 05:35:16;;;;;;;0.00;0.00;;;13.80;99.90;;;;;;5072728;28;20052;-77
2022/05/20 05:37:42;;;;;;;0.35;0.00;;;13.80;99.90;;;;;;5072116;28;20404;-77
2022/05/20 05:40:11;;;;;;;0.00;0.00;;;13.90;99.90;;;;;;5072672;28;20057;-77
2022/05/20 05:42:37;;;;;;;0.00;0.00;;;13.90;99.90;;;;;;5055983;28;20068;-77
2022/05/20 05:45:05;;;;;;;0.75;0.30;;;14.10;99.90;;;;;;5055966;28;20547;-77
2022/05/20 05:47:30;;;;;;;0.15;0.00;;;14.10;99.90;;;;;;5072601;28;20097;-77
2022/05/20 05:49:56;;;;;;;0.30;0.22;;;14.10;99.90;;;;;;5071994;28;20147;-77
2022/05/20 05:52:22;;;;;;;0.00;0.00;;;14.10;99.90;;;;;;5055711;28;20052;-77
2022/05/20 05:54:48;;;;;;;0.20;0.20;;;14.10;99.90;;;;;;5072414;28;20166;-77
2022/05/20 05:57:14;;;;;;;0.00;0.00;;;14.10;99.90;;;;;;5073370;28;20393;-77
2022/05/20 05:59:40;;;;;;;4.28;1.08;;;14.00;99.90;;;;;;5072592;28;20060;-77
2022/05/20 06:02:08;;;;;;;0.28;0.00;;;13.90;99.90;;;;;;5071861;28;20048;-76
2022/05/20 06:04:34;;;;;;;0.00;0.00;;;14.00;99.90;;;;;;5072358;28;20045;-76
2022/05/20 06:07:00;;;;;;;0.00;0.00;;;14.00;99.90;;;;;;5055929;28;20056;-77
2022/05/20 06:09:26;;;;;;;0.00;0.00;;;14.10;99.90;;;;;;5055477;28;20560;-77
2022/05/20 06:11:52;;;;;;;0.00;0.00;;;14.10;99.90;;;;;;5071688;28;20056;-77
2022/05/20 06:14:18;;;;;;;0.10;0.10;;;14.20;99.90;;;;;;5072286;28;20055;-77
2022/05/20 06:16:44;;;;;;;0.00;0.00;;;14.20;99.90;;;;;;5072028;28;20045;-77
2022/05/20 06:19:10;;;;;;;0.00;0.00;;;14.20;99.90;;;;;;5071774;28;20045;-77
2022/05/20 06:21:37;;;;;;;0.00;0.00;;;14.30;99.90;;;;;;5039990;28;20041;-77
2022/05/20 06:24:04;;;;;;;0.00;0.00;;;14.40;99.90;;;;;;5062585;28;20053;-77
2022/05/20 06:26:30;;;;;;;0.00;0.00;;;14.50;99.90;;;;;;5069579;28;20052;-76
2022/05/20 06:28:56;;;;;;;0.00;0.00;;;14.60;99.90;;;;;;5072141;28;20170;-77
2022/05/20 06:31:22;;;;;;;0.08;0.00;;;14.80;99.90;;;;;;5049355;28;20109;-77
2022/05/20 06:33:47;;;;;;;0.10;0.10;;;14.90;99.90;;;;;;5042977;28;20147;-77
2022/05/20 06:41:42;;;;;;;0.00;0.00;;;15.50;99.90;;;;;;5052234;28;20091;-77
2022/05/20 06:44:08;;;;;;;0.17;0.08;;;15.60;99.90;;;;;;5052658;28;20461;-77
2022/05/20 06:46:34;;;;;;;0.00;0.00;;;15.70;99.90;;;;;;5051746;28;20048;-77
2022/05/20 06:49:00;;;;;;;0.00;0.00;;;15.80;99.90;;;;;;5055015;28;20044;-77
2022/05/20 06:51:29;;;;;;;0.73;0.35;;;15.70;99.90;;;;;;5055204;28;20061;-77
2022/05/20 06:53:59;;;;;;;0.60;0.40;;;15.80;99.90;;;;;;5038659;28;20040;-77
2022/05/20 06:56:30;;;;;;;0.10;0.10;;;15.70;99.90;;;;;;5039127;28;20049;-77
2022/05/20 06:58:57;;;;;;;0.00;0.00;;;15.80;99.90;;;;;;5055021;28;20409;-77
2022/05/20 07:01:23;;;;;;;0.32;0.32;;;16.00;99.90;;;;;;5055389;28;20048;-77
2022/05/20 07:03:49;;;;;;;0.20;0.20;;;16.20;99.90;;;;;;5038860;28;20053;-77
2022/05/20 07:06:16;;;;;;;0.03;0.03;;;16.40;99.90;;;;;;5055353;28;20144;-76
2022/05/20 07:08:46;;;;;;;0.00;0.00;;;16.60;99.90;;;;;;5055510;28;20392;-77
2022/05/20 07:11:12;;;;;;;0.00;0.00;;;16.70;99.90;;;;;;5054930;28;20095;-77
2022/05/20 07:13:38;;;;;;;0.00;0.00;;;16.80;99.90;;;;;;5055195;28;20049;-76
2022/05/20 07:16:04;;;;;;;0.00;0.00;;;16.90;99.90;;;;;;5038421;28;20056;-76
2022/05/20 07:18:29;;;;;;;0.03;0.00;;;16.90;99.90;;;;;;5055523;28;20056;-76
2022/05/20 07:20:56;;;;;;;0.00;0.00;;;16.90;99.90;;;;;;5055075;28;20045;-76
2022/05/20 07:23:25;;;;;;;0.00;0.00;;;16.90;99.90;;;;;;5038389;28;20114;-76
2022/05/20 07:25:51;;;;;;;0.00;0.00;;;17.10;99.90;;;;;;5054850;28;20393;-76
2022/05/20 07:28:17;;;;;;;0.10;0.03;;;17.10;99.90;;;;;;5054574;28;20060;-77
2022/05/20 07:30:43;;;;;;;0.10;0.10;;;17.20;99.90;;;;;;5054495;28;20489;-76
2022/05/20 07:33:08;;;;;;;0.00;0.00;;;17.50;99.90;;;;;;5054769;28;20040;-77
2022/05/20 07:35:36;;;;;;;0.17;0.10;;;17.50;99.90;;;;;;5054849;28;20048;-77
2022/05/20 07:38:02;;;;;;;0.00;0.00;;;17.50;99.90;;;;;;5037955;28;20481;-77
2022/05/20 07:40:28;;;;;;;0.00;0.00;;;17.50;99.90;;;;;;5037981;28;20057;-77
2022/05/20 07:42:54;;;;;;;0.10;0.10;;;17.40;99.90;;;;;;5054433;28;20053;-77
2022/05/20 07:45:20;;;;;;;0.00;0.00;;;17.20;99.90;;;;;;5054680;28;20064;-76
2022/05/20 07:47:46;;;;;;;0.00;0.00;;;17.20;99.90;;;;;;5054602;28;20055;-77
2022/05/20 07:50:13;;;;;;;0.00;0.00;;;17.30;99.90;;;;;;5037543;28;20053;-77
2022/05/20 07:55:32;;;;;;;0.00;0.00;;;17.60;99.90;;;;;;5054048;28;20056;-77
2022/05/20 07:57:58;;;;;;;0.10;0.10;;;17.80;99.90;;;;;;5054236;28;20049;-77
2022/05/20 08:00:24;;;;;;;0.10;0.10;;;17.90;99.90;;;;;;5053291;28;20045;-77
2022/05/20 08:02:52;;;;;;;0.00;0.00;;;18.00;99.90;;;;;;5054214;28;20057;-77
2022/05/20 08:05:20;;;;;;;0.00;0.00;;;18.00;99.90;;;;;;5054187;28;20052;-77
2022/05/20 08:07:47;;;;;;;0.22;0.22;;;18.10;99.90;;;;;;5054118;28;20045;-77
2022/05/20 08:10:21;;;;;;;0.00;0.00;;;18.10;99.90;;;;;;5054543;28;20080;-77
2022/05/20 08:12:47;;;;;;;;;;;18.00;99.90;;;;;;5054567;28;20051;-76
2022/05/20 08:15:15;;;;;;;0.00;0.00;;;18.00;99.90;;;;;;5054024;28;19920;-76
2022/05/20 08:17:43;;;;;;;0.00;0.00;;;18.20;99.90;;;;;;5053984;28;20488;-76
2022/05/20 08:20:18;;;;;;;0.10;0.10;;;18.30;99.90;;;;;;5053806;28;20064;-77
2022/05/20 08:22:44;;;;;;;0.00;0.00;;;18.50;99.90;;;;;;5037930;28;20075;-76
2022/05/20 08:25:10;;;;;;;0.00;0.00;;;18.50;99.90;;;;;;5037217;28;20488;-76
2022/05/20 08:27:35;;;;;;;0.00;0.00;;;18.60;99.90;;;;;;5037139;28;20056;-76
2022/05/20 08:30:09;;;;;;;0.00;0.00;;;18.70;99.90;;;;;;5037188;28;20049;-76
2022/05/20 08:32:35;;;;;;;0.22;0.00;;;18.70;99.90;;;;;;5037043;28;20055;-76
2022/05/20 08:35:03;;;;;;;0.00;0.00;;;18.70;99.90;;;;;;5053639;28;20049;-76
2022/05/20 08:37:29;;;;;;;0.10;0.10;;;18.70;99.90;;;;;;5053367;28;20041;-76
2022/05/20 08:39:55;;;;;;;0.00;0.00;;;18.50;99.90;;;;;;5053558;28;20045;-76
2022/05/20 08:42:23;;;;;;;0.00;0.00;;;18.60;99.90;;;;;;5053516;28;20071;-77
2022/05/20 08:44:49;;;;;;;0.47;0.35;;;18.60;98.40;;;;;;5036756;28;20045;-76
2022/05/20 08:47:27;;;;;;;0.00;0.00;;;18.70;99.70;;;;;;5053870;28;20102;-76
2022/05/20 08:49:59;;;;;;;0.00;0.00;;;18.60;99.90;;;;;;5036418;28;20139;-76
2022/05/20 08:52:27;;;;;;;0.00;0.00;;;18.70;99.90;;;;;;5053361;28;20049;-77
2022/05/20 08:54:56;;;;;;;0.00;0.00;;;18.80;98.80;;;;;;5036152;28;20139;-76
2022/05/20 08:57:23;;;;;;;0.20;0.10;;;19.00;99.90;;;;;;5035781;28;20529;-76
2022/05/20 08:59:50;;;;;;;0.10;0.03;;;19.10;99.70;;;;;;5053081;28;20190;-76
2022/05/20 09:02:16;;;;;;;0.00;0.00;;;19.30;99.20;;;;;;5053027;28;20067;-77
2022/05/20 09:04:41;;;;;;;0.03;0.03;;;19.40;98.30;;;;;;5036483;28;20044;-77
2022/05/20 09:07:11;;;;;;;0.00;0.00;;;19.50;99.90;;;;;;5036190;28;20061;-77
2022/05/20 09:09:47;;;;;;;0.00;0.00;;;19.60;97.80;;;;;;5035930;28;20055;-77
2022/05/20 09:12:36;;;;;;;0.60;0.10;;;19.70;95.20;;;;;;5052739;28;20397;-77
2022/05/20 09:18:03;;;;;;;0.15;0.00;;;19.80;95.80;;;;;;5052729;28;20130;-77
2022/05/20 09:20:29;;;;;;;0.30;0.10;;;19.80;96.00;;;;;;5052810;28;20041;-78
2022/05/20 09:23:01;;;;;;;0.75;0.20;;;19.70;95.50;;;;;;5053054;28;20055;-77
2022/05/20 09:25:32;;;;;;;0.00;0.00;;;19.90;96.80;;;;;;5052806;28;20048;-78
2022/05/20 09:28:40;;;;;;;0.00;0.00;;;19.90;96.40;;;;;;5035938;28;20057;-78
2022/05/20 09:31:19;;;;;;;0.00;0.00;;;20.00;96.90;;;;;;4995517;28;20084;-78
2022/05/20 09:34:14;;;;;;;0.00;0.00;;;20.00;96.30;;;;;;4979645;28;20129;-78
2022/05/20 09:37:08;;;;;;;0.00;0.00;;;20.10;92.70;;;;;;4979496;28;20209;-78
2022/05/20 09:39:38;;;;;;;0.00;0.00;;;20.20;93.70;;;;;;4980351;28;20058;-78
2022/05/20 09:42:16;;;;;;;0.20;0.20;;;20.40;95.80;;;;;;4995704;28;20281;-78
2022/05/20 09:44:46;;;;;;;0.00;0.00;;;20.40;95.30;;;;;;4995703;28;20141;-78
2022/05/20 09:47:17;;;;;;;0.00;0.00;;;20.50;96.00;;;;;;4979414;28;20140;-78
2022/05/20 09:49:53;;;;;;;0.10;0.00;;;20.50;95.60;;;;;;4979012;28;20053;-78
2022/05/20 09:52:33;;;;;;;0.00;0.00;;;20.40;94.00;;;;;;4995478;28;20049;-78
2022/05/20 09:55:02;;;;;;;0.00;0.00;;;20.40;93.20;;;;;;4996071;28;20108;-78
2022/05/20 09:57:36;;;;;;;0.00;0.00;;;20.40;93.90;;;;;;4979309;28;20112;-78
2022/05/20 10:00:21;;;;;;;0.00;0.00;;;20.30;93.00;;;;;;4994710;28;20116;-78
2022/05/20 10:02:52;;;;;;;0.00;0.00;;;20.40;93.00;;;;;;5031220;28;20064;-78
2022/05/20 10:05:54;;;;;;;1.75;0.55;;;20.40;94.50;;;;;;5052577;28;20090;-78
2022/05/20 10:08:30;;;;;;;0.00;0.00;;;20.40;94.50;;;;;;5052432;28;20136;-78
2022/05/20 10:11:17;;;;;;;0.00;0.00;;;20.40;94.50;;;;;;5052374;28;20055;-78
2022/05/20 10:13:55;;;;;;;0.10;0.10;;;20.60;94.90;;;;;;5052730;28;20045;-78
2022/05/20 10:16:40;;;;;;;0.00;0.00;;;20.60;93.90;;;;;;5035771;28;20136;-78
2022/05/20 10:19:11;;;;;;;;;;;20.70;94.60;;;;;;5036177;28;20092;-78
2022/05/20 10:21:53;;;;;;;0.00;0.00;;;20.80;93.80;;;;;;5052310;28;19998;-78
2022/05/20 10:24:44;;;;;;;0.00;0.00;;;20.80;91.60;;;;;;5055914;28;20554;-79
2022/05/20 10:27:33;;;;;;;0.10;0.03;;;20.90;91.40;;;;;;5055865;28;20480;-78
2022/05/20 10:33:13;;;;;;;0.00;0.00;;;21.10;88.40;;;;;;5055786;28;20060;-78
2022/05/20 10:36:14;;;;;;;0.00;0.00;;;21.10;87.90;;;;;;5055633;28;20081;-78
2022/05/20 10:38:45;;;;;;;0.15;0.00;;;21.00;84.20;;;;;;4998259;28;20157;-78
2022/05/20 10:41:15;;;;;;;0.10;0.00;;;20.90;89.20;;;;;;4982360;28;20477;-78
2022/05/20 10:49:55;;;;;;;0.00;0.00;;;20.60;88.60;;;;;;4998623;28;20053;-78
2022/05/20 10:52:53;;;;;;;0.00;0.00;;;20.60;90.80;;;;;;4982220;28;20089;-78
2022/05/20 10:55:40;;;;;;;0.10;0.10;;;20.70;90.50;;;;;;4998771;28;20084;-79
2022/05/20 10:58:50;;;;;;;0.00;0.00;;;20.90;87.20;;;;;;4982329;28;20553;-78
2022/05/20 11:01:53;;;;;;;0.00;0.00;;;21.10;90.60;;;;;;4940147;29;20539;-78
2022/05/20 11:04:30;;;;;;;0.25;0.20;;;21.30;87.50;;;;;;4940382;29;20051;-78
2022/05/20 11:07:23;;;;;;;0.00;0.00;;;21.40;85.60;;;;;;4940354;29;20153;-78
2022/05/20 11:10:17;;;;;;;0.00;0.00;;;21.50;86.70;;;;;;4940162;29;20046;-78
2022/05/20 11:12:57;;;;;;;0.00;0.00;;;21.50;81.80;;;;;;4944533;28;20494;-78
2022/05/20 11:15:53;;;;;;;0.00;0.00;;;21.70;82.00;;;;;;4978453;28;20108;-78
2022/05/20 11:18:38;;;;;;;0.00;0.00;;;21.80;84.20;;;;;;4939899;29;20059;-78
2022/05/20 11:21:22;;;;;;;;;;;22.00;85.10;;;;;;4940456;29;20146;-79
2022/05/20 11:24:28;;;;;;;0.03;0.00;;;22.10;84.80;;;;;;4955900;29;19922;-78
2022/05/20 11:27:13;;;;;;;0.22;0.20;;;22.10;83.40;;;;;;4901984;29;20063;-78
2022/05/20 11:30:05;;;;;;;0.08;0.05;;;22.30;83.70;;;;;;4901742;29;20056;-78
2022/05/20 11:32:50;;;;;;;0.32;0.13;;;22.50;82.20;;;;;;4901974;29;20429;-77
2022/05/20 11:35:43;;;;;;;0.00;0.00;;;22.50;74.90;;;;;;4901907;29;20048;-78
2022/05/20 11:38:29;;;;;;;0.55;0.25;;;22.50;76.30;;;;;;4913278;29;20111;-77
2022/05/20 11:41:17;;;;;;;0.00;0.00;;;22.60;76.20;;;;;;4939623;29;20138;-78
2022/05/20 11:43:56;;;;;;;0.00;0.00;;;22.50;78.10;;;;;;4939691;29;20183;-77
2022/05/20 11:46:31;;;;;;;2.63;0.43;;;22.50;77.20;;;;;;4939613;29;20058;-77
2022/05/20 11:49:33;;;;;;;0.00;0.00;;;22.50;80.90;;;;;;4939567;29;20795;-78
2022/05/20 11:52:24;;;;;;;0.10;0.10;;;22.60;78.70;;;;;;4938981;29;20055;-77
2022/05/20 11:55:00;;;;;;;0.10;0.10;;;22.70;82.20;;;;;;4970916;28;20396;-78
2022/05/20 11:57:32;;;;;;;0.10;0.00;;;22.90;80.40;;;;;;4981625;28;20069;-78
2022/05/20 12:00:05;;;;;;;0.00;0.00;;;23.00;81.80;;;;;;4997611;28;20046;-78
2022/05/20 12:02:36;;;;;;;0.00;0.00;;;23.00;78.40;;;;;;4999080;28;20104;-78
2022/05/20 12:05:02;;;;;;;0.10;0.10;;;23.00;76.90;;;;;;5054248;28;20049;-77
2022/05/20 12:07:28;;;;;;;0.03;0.00;;;22.90;76.90;;;;;;5054452;28;20441;-78
2022/05/20 12:09:56;;;;;;;0.15;0.15;;;22.80;76.20;;;;;;5037422;28;20045;-78
2022/05/20 12:12:33;;;;;;;0.00;0.00;;;22.60;76.00;;;;;;5053824;28;20580;-78
2022/05/20 12:15:01;;;;;;;0.00;0.00;;;22.50;77.10;;;;;;5037236;28;20048;-78
2022/05/20 12:17:32;;;;;;;0.08;0.00;;;22.60;78.60;;;;;;5037287;28;20056;-78
2022/05/20 12:26:07;;;;;;;0.00;0.00;;;22.60;79.50;;;;;;5015994;28;20493;-78
2022/05/20 12:28:39;;;;;;;0.00;0.00;;;22.60;79.70;;;;;;5016855;28;20061;-79
2022/05/20 12:31:28;;;;;;;0.00;0.00;;;22.60;80.10;;;;;;5016146;28;20544;-79
2022/05/20 12:34:05;;;;;;;0.10;0.10;;;22.50;80.10;;;;;;5016524;28;20141;-78
2022/05/20 12:36:36;;;;;;;0.00;0.00;;;22.40;79.60;;;;;;5000350;28;20061;-78
2022/05/20 12:39:07;;;;;;;0.00;0.00;;;22.40;79.90;;;;;;4999988;28;20071;-78
2022/05/20 12:41:49;;;;;;;0.00;0.00;;;22.40;80.40;;;;;;5016078;28;20052;-78
2022/05/20 12:44:20;;;;;;;0.00;0.00;;;22.40;80.90;;;;;;5016191;28;20485;-78
2022/05/20 12:47:05;;;;;;;0.00;0.00;;;22.40;82.00;;;;;;5015623;28;20132;-78
2022/05/20 12:49:49;;;;;;;0.00;0.00;;;22.20;81.80;;;;;;5015858;28;20497;-79
2022/05/20 12:52:17;;;;;;;0.00;0.00;;;22.20;82.60;;;;;;5016282;28;20054;-78
2022/05/20 12:54:58;;;;;;;0.00;0.00;;;22.10;84.00;;;;;;5015827;28;20049;-78
2022/05/20 12:57:34;;;;;;;0.00;0.00;;;22.00;82.10;;;;;;4999639;28;20093;-78
2022/05/20 13:00:07;;;;;;;0.00;0.00;;;21.90;81.60;;;;;;5015831;28;20057;-79
2022/05/20 13:02:45;;;;;;;0.38;0.22;;;21.80;81.00;;;;;;5007061;28;20057;-79
2022/05/20 13:05:23;;;;;;;0.00;0.00;;;21.60;82.00;;;;;;5053161;28;20049;-79
2022/05/20 13:07:52;;;;;;;0.00;0.00;;;21.50;84.60;;;;;;5037285;28;20040;-79
2022/05/20 13:10:32;;;;;;;0.22;0.22;;;21.30;84.80;;;;;;5036358;28;20427;-78
2022/05/20 13:13:02;;;;;;;0.20;0.10;;;21.20;86.20;;;;;;5053001;28;20114;-79
2022/05/20 13:15:28;;;;;;;0.00;0.00;;;21.10;86.00;;;;;;5052876;28;20045;-79
2022/05/20 13:18:08;;;;;;;0.05;0.05;;;21.00;88.40;;;;;;5035932;28;20056;-79
2022/05/20 13:20:36;;;;;;;1.95;0.47;;;20.90;87.50;;;;;;5035926;28;20111;-79
2022/05/20 13:23:05;;;;;;;0.00;0.00;;;20.70;87.30;;;;;;5053323;28;20052;-79
2022/05/20 13:25:31;;;;;;;0.00;0.00;;;20.60;89.40;;;;;;5052926;28;20040;-79
2022/05/20 13:27:59;;;;;;;0.08;0.03;;;20.60;89.30;;;;;;5052815;28;20044;-79
2022/05/20 13:30:29;;;;;;;0.00;0.00;;;20.50;91.00;;;;;;5035991;28;20081;-79
2022/05/20 13:33:06;;;;;;;0.10;0.10;;;20.50;91.30;;;;;;5053418;28;20045;-79
2022/05/20 13:35:49;;;;;;;0.00;0.00;;;20.40;92.60;;;;;;5052660;28;20088;-79
2022/05/20 13:38:14;;;;;;;0.00;0.00;;;20.30;92.50;;;;;;5052735;28;20053;-79
2022/05/20 13:40:42;;;;;;;0.00;0.00;;;20.20;94.80;;;;;;5036261;28;20053;-79
2022/05/20 13:43:11;;;;;;;0.30;0.00;;;20.00;96.00;;;;;;5052538;28;20053;-79
2022/05/20 13:51:21;;;;;;;0.00;0.00;;;19.60;99.00;;;;;;5052152;28;20057;-79
2022/05/20 13:53:49;;;;;;;0.20;0.20;;;19.40;99.90;;;;;;5052895;28;20132;-79
2022/05/20 13:56:16;;;;;;;0.00;0.00;;;19.30;99.90;;;;;;5055597;28;20079;-80
2022/05/20 13:58:43;;;;;;;0.00;0.00;;;19.20;99.90;;;;;;5062260;28;20124;-80
2022/05/20 14:01:13;;;;;;;0.00;0.00;;;19.00;99.90;;;;;;5039574;28;20076;-80